Pagrindinis puslapis
METAR-TAF:

METAR-TAF

Oro uostai :

Madridas, Ispanija

platuma: 40-27N, ilguma: 003-33W, Aukštis: 609 m

Dabartinis oras

Ataskaita buvo paskelbta 25 minutes, ne 21:00 UTC
Vėjas 4 kt iš Šiaurės/Šiaurės Vakarų
Temperatūra 8°C
Drėgmė 57%
Slėgis 1029 hPa
Matomumas 10 km arba daugiau
nėra debesų žemiau 1500 m ir nėra kamuolinių lietaus debesų

METAR: LEMD 212100Z 34004KT CAVOK 08/00 Q1029 NOSIG

Laikas: 22:25 (21:25 UTC)

Prognozė

Ataskaita buvo paskelbta 4 valandos ir 25 minutes, ne 17:00 UTC
Prognozė galioja nuo 21 metu 18 UTC su 22 metu 24 UTC
Vėjas 4 kt nuo kintamojo kryptimis
Matomumas 10 km arba daugiau
nėra debesų žemiau 1500 m ir nėra kamuolinių lietaus debesų
Laikinai
nuo 21 metu 19 UTC su 22 metu 07 UTC
Vėjas 7 kt iš Šiaurės/Šiaurės Rytų
Laikinai
nuo 22 metu 19 UTC su 22 metu 24 UTC
Vėjas 6 kt iš Šiaurės/Šiaurės Rytų

TAF: LEMD 211700Z 2118/2224 VRB04KT CAVOK TX20/2216Z TNM01/2206Z TEMPO 2119/2207 02007KT TEMPO 2219/2224 02006KT

Orai ataskaitas ir orų prognozės (METAR, TAF).

turimą stotys yra geltonos ir raudonos taškus žemėlapyje.

Perkelti pele per norėdami pamatyti stoties vardą.

Tada spustelėkite, norėdami matyti oro stebėjimo ir prognozės.

Norėdami pakeisti žemėlapį: spustelėkite ant žalios mygtukų su juodo kryžiaus žemyn,; žalią mygtuką su brūkšneliu, jei norite nutolinti; arba žalių rodyklių gretimoms žemėlapius.


METAR-TAF: